createdAt,value
2022-11-05T00:00:15.644Z,97540.78
2022-11-05T00:03:01.305Z,97554.53
2022-11-05T00:05:47.481Z,97550.22
2022-11-05T00:08:32.937Z,97557.38
2022-11-05T00:10:59.984Z,97566.75
2022-11-05T00:13:45.626Z,97563.22
2022-11-05T00:16:41.545Z,97568.50
2022-11-05T00:19:09.256Z,97579.03
2022-11-05T00:21:57.150Z,97575.38
2022-11-05T00:24:43.533Z,97583.69
2022-11-05T00:27:10.799Z,97600.84
2022-11-05T00:29:37.901Z,97586.34
2022-11-05T00:32:05.095Z,97595.75
2022-11-05T00:34:32.095Z,97591.81
2022-11-05T00:36:59.168Z,97599.19
2022-11-05T00:39:26.019Z,97590.09
2022-11-05T00:42:11.361Z,97603.63
2022-11-05T00:44:56.984Z,97605.34
2022-11-05T00:47:42.426Z,97605.06
2022-11-05T00:50:11.042Z,97600.53
2022-11-05T00:52:58.048Z,97596.00
2022-11-05T00:55:38.410Z,97603.53
2022-11-05T00:58:17.533Z,97602.75
2022-11-05T01:00:48.667Z,97600.31
2022-11-05T01:03:17.888Z,97614.19
2022-11-05T01:05:53.545Z,97606.91
2022-11-05T01:08:22.941Z,97601.16
2022-11-05T01:10:52.629Z,97604.50
2022-11-05T01:13:22.248Z,97603.31
2022-11-05T01:15:51.161Z,97604.63
2022-11-05T01:18:19.236Z,97612.56
2022-11-05T01:20:46.490Z,97611.97
2022-11-05T01:23:14.070Z,97625.13
2022-11-05T01:25:42.455Z,97628.03
2022-11-05T01:28:10.315Z,97638.00
2022-11-05T01:30:37.719Z,97639.31
2022-11-05T01:33:04.732Z,97637.28
2022-11-05T01:35:31.796Z,97631.88
2022-11-05T01:37:58.748Z,97633.75
2022-11-05T01:40:26.167Z,97633.16
2022-11-05T01:42:53.224Z,97637.06
2022-11-05T01:45:24.398Z,97657.63
2022-11-05T01:47:54.101Z,97667.41
2022-11-05T01:50:42.653Z,97678.00
2022-11-05T01:53:19.871Z,97674.22
2022-11-05T01:55:53.995Z,97675.72
2022-11-05T01:58:24.686Z,97672.25
2022-11-05T02:00:51.853Z,97680.13
2022-11-05T02:03:19.816Z,97692.38
2022-11-05T02:05:50.641Z,97690.16
2022-11-05T02:09:15.657Z,97683.72
2022-11-05T02:12:05.842Z,97699.91
2022-11-05T02:14:48.490Z,97705.13
2022-11-05T02:17:41.178Z,97699.13
2022-11-05T02:20:49.481Z,97711.13
2022-11-05T02:24:09.165Z,97715.09
2022-11-05T02:26:46.532Z,97712.41
2022-11-05T02:29:31.467Z,97720.50
2022-11-05T02:32:23.053Z,97697.31
2022-11-05T02:35:01.752Z,97688.19
2022-11-05T02:37:53.753Z,97695.28
2022-11-05T02:40:46.308Z,97693.22
2022-11-05T02:43:31.368Z,97707.72
2022-11-05T02:46:36.420Z,97719.38
2022-11-05T02:49:15.282Z,97725.00
2022-11-05T02:51:57.349Z,97732.88
2022-11-05T02:54:55.382Z,97731.84
2022-11-05T02:57:23.019Z,97739.31
2022-11-05T02:59:50.044Z,97743.25
2022-11-05T03:02:17.152Z,97740.34
2022-11-05T03:04:44.186Z,97745.97
2022-11-05T03:07:23.092Z,97742.84
2022-11-05T03:10:16.124Z,97745.97
2022-11-05T03:13:11.319Z,97744.06
2022-11-05T03:15:38.400Z,97752.16
2022-11-05T03:18:08.189Z,97754.84
2022-11-05T03:20:41.038Z,97752.16
2022-11-05T03:23:38.858Z,97767.94
2022-11-05T03:26:22.161Z,97759.25
2022-11-05T03:28:57.203Z,97772.50
2022-11-05T03:31:25.943Z,97768.56
2022-11-05T03:33:55.252Z,97761.94
2022-11-05T03:36:45.349Z,97771.06
2022-11-05T03:39:19.589Z,97764.22
2022-11-05T03:41:51.442Z,97774.78
2022-11-05T03:44:26.882Z,97784.13
2022-11-05T03:47:01.134Z,97792.81
2022-11-05T03:49:35.688Z,97779.75
2022-11-05T03:52:14.790Z,97793.63
2022-11-05T03:54:41.869Z,97790.31
2022-11-05T03:57:17.869Z,97740.59
2022-11-05T03:59:47.534Z,97795.31
2022-11-05T04:02:16.763Z,97790.94
2022-11-05T04:04:44.177Z,97796.09
2022-11-05T04:07:30.729Z,97803.38
2022-11-05T04:10:16.245Z,97797.38
2022-11-05T04:13:01.594Z,97811.66
2022-11-05T04:15:29.931Z,97810.22
2022-11-05T04:17:59.161Z,97810.22
2022-11-05T04:20:45.056Z,97818.09
2022-11-05T04:23:41.260Z,97817.50
2022-11-05T04:26:08.140Z,97810.00
2022-11-05T04:28:53.714Z,97807.72
2022-11-05T04:31:20.554Z,97815.19
2022-11-05T04:33:47.451Z,97821.00
2022-11-05T04:36:16.373Z,97816.03
2022-11-05T04:38:43.302Z,97816.88
2022-11-05T04:41:17.560Z,97804.41
2022-11-05T04:43:45.188Z,97814.38
2022-11-05T04:46:12.585Z,97820.19
2022-11-05T04:48:39.484Z,97813.75
2022-11-05T04:51:07.074Z,97825.34
2022-11-05T04:53:34.083Z,97825.97
2022-11-05T04:56:18.767Z,97828.06
2022-11-05T04:58:46.111Z,97828.50
2022-11-05T05:01:15.117Z,97822.06
2022-11-05T05:03:42.678Z,97824.75
2022-11-05T05:06:10.620Z,97827.66
2022-11-05T05:08:37.593Z,97820.81
2022-11-05T05:11:09.595Z,97824.75
2022-11-05T05:13:36.764Z,97824.75
2022-11-05T05:16:08.237Z,97826.81
2022-11-05T05:18:35.856Z,97839.69
2022-11-05T05:21:21.507Z,97836.75
2022-11-05T05:23:48.726Z,97812.06
2022-11-05T05:26:16.895Z,97844.84
2022-11-05T05:28:43.756Z,97851.91
2022-11-05T05:31:10.762Z,97837.19
2022-11-05T05:33:37.759Z,97839.28
2022-11-05T05:36:10.902Z,97835.94
2022-11-05T05:38:38.430Z,97844.66
2022-11-05T05:41:05.640Z,97850.03
2022-11-05T05:43:33.976Z,97861.78
2022-11-05T05:46:05.529Z,97866.09
2022-11-05T05:48:32.753Z,97882.25
2022-11-05T05:51:04.867Z,97887.00
2022-11-05T05:53:32.244Z,97890.53
2022-11-05T05:55:59.260Z,97900.69
2022-11-05T05:58:31.048Z,97898.16
2022-11-05T06:01:01.763Z,97889.84
2022-11-05T06:03:28.754Z,97904.56
2022-11-05T06:06:04.276Z,97907.03
2022-11-05T06:08:31.647Z,97904.78
2022-11-05T06:10:59.742Z,97899.19
2022-11-05T06:13:27.361Z,97891.28
2022-11-05T06:15:54.322Z,97917.03
2022-11-05T06:18:21.226Z,97921.97
2022-11-05T06:20:48.172Z,97877.53
2022-11-05T06:23:15.059Z,97936.50
2022-11-05T06:25:42.078Z,97949.78
2022-11-05T06:28:09.057Z,97909.72
2022-11-05T06:30:36.048Z,97934.44
2022-11-05T06:33:06.976Z,97955.44
2022-11-05T06:35:33.939Z,97957.22
2022-11-05T06:38:03.674Z,97969.44
2022-11-05T06:40:30.584Z,97975.88
2022-11-05T06:42:57.871Z,97977.16
2022-11-05T06:45:25.038Z,97985.00
2022-11-05T06:47:59.372Z,97988.72
2022-11-05T06:50:27.789Z,97992.28
2022-11-05T06:52:59.500Z,97993.75
2022-11-05T06:55:28.444Z,97997.06
2022-11-05T06:57:56.549Z,98007.06
2022-11-05T07:00:23.779Z,97998.69
2022-11-05T07:02:50.740Z,98016.63
2022-11-05T07:05:18.336Z,98018.72
2022-11-05T07:07:46.090Z,98029.00
2022-11-05T07:10:15.599Z,97968.09
2022-11-05T07:12:43.038Z,98027.69
2022-11-05T07:15:11.725Z,98031.16
2022-11-05T07:17:39.686Z,98037.38
2022-11-05T07:20:08.370Z,98033.84
2022-11-05T07:22:36.076Z,98039.69
2022-11-05T07:25:03.898Z,98042.03
2022-11-05T07:27:30.884Z,98038.16
2022-11-05T07:29:57.814Z,98040.63
2022-11-05T07:32:24.760Z,98045.72
2022-11-05T07:34:51.714Z,98040.09
2022-11-05T07:37:18.805Z,98045.50
2022-11-05T07:39:45.669Z,98054.31
2022-11-05T07:42:14.013Z,98050.81
2022-11-05T07:44:40.941Z,98047.94
2022-11-05T07:47:07.962Z,98050.41
2022-11-05T07:49:34.900Z,98044.47
2022-11-05T07:52:01.910Z,98054.53
2022-11-05T07:54:28.918Z,98058.28
2022-11-05T07:56:55.852Z,98059.97
2022-11-05T07:59:22.753Z,98057.00
2022-11-05T08:01:49.819Z,98059.56
2022-11-05T08:04:16.897Z,98068.28
2022-11-05T08:06:43.830Z,98061.19
2022-11-05T08:09:10.772Z,98069.97
2022-11-05T08:11:37.702Z,98056.09
2022-11-05T08:14:04.672Z,98056.50
2022-11-05T08:16:31.542Z,98074.81
2022-11-05T08:18:58.487Z,98067.22
2022-11-05T08:21:25.352Z,98064.34
2022-11-05T08:23:52.281Z,98058.34
2022-11-05T08:26:19.889Z,98060.31
2022-11-05T08:28:46.789Z,98007.19
2022-11-05T08:31:15.715Z,98066.69
2022-11-05T08:33:42.605Z,98077.31
2022-11-05T08:36:10.200Z,98081.50
2022-11-05T08:38:37.745Z,98087.69
2022-11-05T08:41:05.172Z,98085.38
2022-11-05T08:43:32.096Z,98097.44
2022-11-05T08:46:01.905Z,98100.97
2022-11-05T08:48:29.172Z,98106.94
2022-11-05T08:50:56.137Z,98106.13
2022-11-05T08:53:23.072Z,98110.66
2022-11-05T08:55:51.697Z,98110.28
2022-11-05T08:58:20.972Z,98111.75
2022-11-05T09:00:50.142Z,98117.38
2022-11-05T09:03:18.092Z,98115.59
2022-11-05T09:05:45.518Z,98116.28
2022-11-05T09:08:15.570Z,98114.06
2022-11-05T09:10:43.868Z,98113.44
2022-11-05T09:13:17.848Z,98119.06
2022-11-05T09:15:45.718Z,98115.97
2022-11-05T09:18:14.298Z,98110.13
2022-11-05T09:20:41.672Z,98118.47
2022-11-05T09:23:10.114Z,98119.84
2022-11-05T09:25:37.662Z,98118.88
2022-11-05T09:28:11.387Z,98117.59
2022-11-05T09:30:47.188Z,98124.78
2022-11-05T09:33:15.163Z,98116.88
2022-11-05T09:35:43.303Z,98108.84
2022-11-05T09:38:10.549Z,98126.34
2022-11-05T09:40:43.469Z,98131.50
2022-11-05T09:43:21.067Z,98133.94
2022-11-05T09:45:56.935Z,98133.69
2022-11-05T09:48:29.402Z,98132.94
2022-11-05T09:50:57.480Z,98136.59
2022-11-05T09:53:25.496Z,98135.28
2022-11-05T09:55:56.699Z,98142.97
2022-11-05T09:58:29.377Z,98143.34
2022-11-05T10:00:57.885Z,98144.53
2022-11-05T10:03:28.359Z,98149.09
2022-11-05T10:06:00.528Z,98142.09
2022-11-05T10:08:35.874Z,98153.34
2022-11-05T10:11:09.974Z,98149.75
2022-11-05T10:13:45.808Z,98149.22
2022-11-05T10:16:25.770Z,98149.69
2022-11-05T10:19:04.934Z,98144.75
2022-11-05T10:22:04.157Z,98159.66
2022-11-05T10:24:21.001Z,98156.28
2022-11-05T10:26:51.296Z,98155.91
2022-11-05T10:29:38.589Z,98160.47
2022-11-05T10:32:07.517Z,98176.41
2022-11-05T10:34:38.550Z,98167.06
2022-11-05T10:37:05.934Z,98164.97
2022-11-05T10:39:34.293Z,98140.00
2022-11-05T10:42:18.310Z,98175.53
2022-11-05T10:45:14.674Z,98171.19
2022-11-05T10:48:09.322Z,98168.25
2022-11-05T10:50:36.255Z,98163.84
2022-11-05T10:53:13.162Z,98171.78
2022-11-05T10:55:51.969Z,98172.44
2022-11-05T10:58:22.874Z,98168.97
2022-11-05T11:00:52.647Z,98182.00
2022-11-05T11:03:40.959Z,98205.66
2022-11-05T11:06:27.240Z,98197.34
2022-11-05T11:08:56.950Z,98198.38
2022-11-05T11:11:39.347Z,98196.44
2022-11-05T11:14:11.981Z,98191.13
2022-11-05T11:16:41.866Z,98187.22
2022-11-05T11:19:20.893Z,98185.72
2022-11-05T11:22:07.670Z,98180.38
2022-11-05T11:24:47.172Z,98181.19
2022-11-05T11:27:25.400Z,98197.59
2022-11-05T11:29:59.597Z,98194.06
2022-11-05T11:32:39.517Z,98201.97
2022-11-05T11:35:18.937Z,98199.94
2022-11-05T11:37:46.900Z,98202.47
2022-11-05T11:40:32.993Z,98205.34
2022-11-05T11:43:04.482Z,98210.09
2022-11-05T11:45:44.474Z,98202.47
2022-11-05T11:48:18.525Z,98182.44
2022-11-05T11:50:48.070Z,98215.72
2022-11-05T11:53:24.137Z,98202.88
2022-11-05T11:55:58.619Z,98202.47
2022-11-05T11:58:50.026Z,98207.84
2022-11-05T12:01:22.596Z,98194.97
2022-11-05T12:03:58.454Z,98202.88
2022-11-05T12:06:28.150Z,98202.47
2022-11-05T12:09:06.709Z,98210.09
2022-11-05T12:11:44.020Z,98210.19
2022-11-05T12:14:28.673Z,98217.38
2022-11-05T12:17:10.382Z,98223.06
2022-11-05T12:19:44.996Z,98214.44
2022-11-05T12:22:11.860Z,98229.19
2022-11-05T12:24:49.128Z,98239.38
2022-11-05T12:27:40.188Z,98231.59
2022-11-05T12:30:17.280Z,98235.34
2022-11-05T12:32:50.313Z,98231.81
2022-11-05T12:35:57.947Z,98225.84
2022-11-05T12:38:25.020Z,98232.44
2022-11-05T12:41:16.922Z,98238.31
2022-11-05T12:43:53.274Z,98240.75
2022-11-05T12:46:29.760Z,98250.03
2022-11-05T12:49:14.572Z,98248.66
2022-11-05T12:51:58.162Z,98240.34
2022-11-05T12:54:53.803Z,98241.00
2022-11-05T12:57:23.500Z,98191.50
2022-11-05T13:00:03.335Z,98228.97
2022-11-05T13:02:51.681Z,98242.31
2022-11-05T13:05:40.828Z,98247.72
2022-11-05T13:08:23.766Z,98254.41
2022-11-05T13:10:56.016Z,98254.38
2022-11-05T13:13:51.626Z,98263.66
2022-11-05T13:16:35.413Z,98256.59
2022-11-05T13:19:25.715Z,98261.84
2022-11-05T13:22:19.766Z,98270.13
2022-11-05T13:24:51.640Z,98263.47
2022-11-05T13:27:46.426Z,98292.66
2022-11-05T13:30:18.262Z,98288.09
2022-11-05T13:32:54.183Z,98299.22
2022-11-05T13:35:41.231Z,98298.81
2022-11-05T13:38:34.351Z,98301.69
2022-11-05T13:41:30.446Z,98311.03
2022-11-05T13:44:23.627Z,98309.75
2022-11-05T13:47:12.260Z,98313.72
2022-11-05T13:49:55.937Z,98309.13
2022-11-05T13:52:48.819Z,98266.22
2022-11-05T13:55:25.290Z,98309.69
2022-11-05T13:58:26.259Z,98309.44
2022-11-05T14:01:24.922Z,98305.69
2022-11-05T14:03:55.755Z,98293.16
2022-11-05T14:06:27.042Z,98318.13
2022-11-05T14:08:59.701Z,98319.03
2022-11-05T14:11:40.637Z,98327.72
2022-11-05T14:14:16.184Z,98345.75
2022-11-05T14:17:13.373Z,98341.75
2022-11-05T14:20:06.620Z,98338.81
2022-11-05T14:22:41.748Z,98336.75
2022-11-05T14:25:17.796Z,98352.91
2022-11-05T14:27:49.658Z,98363.66
2022-11-05T14:30:43.046Z,98364.50
2022-11-05T14:33:31.374Z,98375.63
2022-11-05T14:36:26.903Z,98374.81
2022-11-05T14:39:00.110Z,98379.16
2022-11-05T14:41:31.091Z,98385.34
2022-11-05T14:44:00.060Z,98381.03
2022-11-05T14:46:47.066Z,98381.22
2022-11-05T14:49:49.927Z,98387.72
2022-11-05T14:52:19.432Z,98389.75
2022-11-05T14:54:54.040Z,98393.47
2022-11-05T14:57:42.736Z,98398.69
2022-11-05T15:00:40.992Z,98393.03
2022-11-05T15:03:46.905Z,98407.53
2022-11-05T15:06:37.184Z,98408.34
2022-11-05T15:09:13.495Z,98413.34
2022-11-05T15:11:56.729Z,98410.44
2022-11-05T15:14:28.207Z,98420.81
2022-11-05T15:17:09.211Z,98432.44
2022-11-05T15:19:39.273Z,98425.22
2022-11-05T15:22:18.814Z,98413.97
2022-11-05T15:24:46.412Z,98429.53
2022-11-05T15:27:41.079Z,98437.16
2022-11-05T15:30:27.026Z,98444.41
2022-11-05T15:32:54.072Z,98453.78
2022-11-05T15:35:23.808Z,98449.00
2022-11-05T15:37:55.872Z,98458.34
2022-11-05T15:40:26.305Z,98460.00
2022-11-05T15:43:22.439Z,98419.00
2022-11-05T15:46:25.828Z,98460.25
2022-11-05T15:48:55.400Z,98460.84
2022-11-05T15:51:27.112Z,98464.19
2022-11-05T15:56:53.123Z,98471.25
2022-11-05T15:59:23.302Z,98469.38
2022-11-05T16:01:57.047Z,98437.72
2022-11-05T16:04:32.704Z,98466.88
2022-11-05T16:07:11.408Z,98475.53
2022-11-05T16:09:42.226Z,98468.91
2022-11-05T16:12:21.250Z,98466.22
2022-11-05T16:15:11.188Z,98472.63
2022-11-05T16:17:38.062Z,98475.09
2022-11-05T16:20:23.626Z,98472.59
2022-11-05T16:22:59.528Z,98478.41
2022-11-05T16:25:28.489Z,98475.53
2022-11-05T16:27:57.423Z,98482.53
2022-11-05T16:30:25.427Z,98477.13
2022-11-05T16:32:53.480Z,98478.81
2022-11-05T16:35:23.748Z,98485.47
2022-11-05T16:37:52.458Z,98492.53
2022-11-05T16:40:22.900Z,98489.59
2022-11-05T16:42:51.835Z,98502.41
2022-11-05T16:45:24.110Z,98510.88
2022-11-05T16:47:51.623Z,98512.72
2022-11-05T16:50:30.238Z,98510.59
2022-11-05T16:52:57.171Z,98510.78
2022-11-05T16:55:24.123Z,98525.09
2022-11-05T16:57:55.602Z,98522.88
2022-11-05T17:00:23.957Z,98516.16
2022-11-05T17:02:51.397Z,98523.88
2022-11-05T17:05:24.369Z,98536.53
2022-11-05T17:07:51.921Z,98541.25
2022-11-05T17:10:20.182Z,98537.25
2022-11-05T17:12:47.372Z,98548.41
2022-11-05T17:15:23.306Z,98541.50
2022-11-05T17:17:51.618Z,98549.13
2022-11-05T17:20:41.744Z,98538.84
2022-11-05T17:23:16.942Z,98543.84
2022-11-05T17:25:47.721Z,98497.44
2022-11-05T17:28:16.711Z,98552.59
2022-11-05T17:30:47.906Z,98546.81
2022-11-05T17:33:19.675Z,98541.16
2022-11-05T17:35:46.778Z,98550.16
2022-11-05T17:38:14.079Z,98555.63
2022-11-05T17:40:42.125Z,98542.91
2022-11-05T17:43:09.647Z,98545.41
2022-11-05T17:45:48.780Z,98549.78
2022-11-05T17:48:16.343Z,98553.50
2022-11-05T17:50:45.422Z,98564.28
2022-11-05T17:53:13.337Z,98557.50
2022-11-05T17:55:42.236Z,98561.50
2022-11-05T17:58:09.286Z,98556.84
2022-11-05T18:00:36.538Z,98568.94
2022-11-05T18:03:03.895Z,98571.09
2022-11-05T18:05:31.230Z,98551.81
2022-11-05T18:07:58.635Z,98567.72
2022-11-05T18:10:25.765Z,98574.31
2022-11-05T18:12:52.906Z,98576.28
2022-11-05T18:15:20.044Z,98569.75
2022-11-05T18:17:47.073Z,98572.94
2022-11-05T18:20:19.189Z,98578.50
2022-11-05T18:22:49.481Z,98586.41
2022-11-05T18:25:17.613Z,98592.09
2022-11-05T18:27:45.019Z,98590.78
2022-11-05T18:30:15.646Z,98599.50
2022-11-05T18:32:44.549Z,98600.50
2022-11-05T18:35:13.543Z,98607.41
2022-11-05T18:37:41.006Z,98597.38
2022-11-05T18:40:08.635Z,98589.09
2022-11-05T18:42:35.899Z,98587.72
2022-11-05T18:45:03.857Z,98597.47
2022-11-05T18:47:32.758Z,98599.88
2022-11-05T18:50:00.710Z,98579.78
2022-11-05T18:52:28.519Z,98609.81
2022-11-05T18:54:55.563Z,98610.34
2022-11-05T18:57:22.492Z,98612.75
2022-11-05T18:59:51.661Z,98617.91
2022-11-05T19:02:18.732Z,98617.25
2022-11-05T19:05:06.714Z,98566.59
2022-11-05T19:07:35.532Z,98620.09
2022-11-05T19:10:02.604Z,98627.06
2022-11-05T19:12:29.516Z,98627.69
2022-11-05T19:15:01.956Z,98620.59
2022-11-05T19:17:31.952Z,98625.81
2022-11-05T19:19:58.888Z,98621.44
2022-11-05T19:22:26.220Z,98571.31
2022-11-05T19:24:53.323Z,98637.00
2022-11-05T19:27:20.608Z,98634.31
2022-11-05T19:29:47.966Z,98641.47
2022-11-05T19:32:15.238Z,98645.16
2022-11-05T19:34:42.306Z,98615.44
2022-11-05T19:37:09.537Z,98637.81
2022-11-05T19:39:36.814Z,98665.31
2022-11-05T19:42:04.726Z,98652.41
2022-11-05T19:44:32.253Z,98662.25
2022-11-05T19:46:59.390Z,98661.91
2022-11-05T19:49:28.308Z,98663.94
2022-11-05T19:51:55.509Z,98661.53
2022-11-05T19:54:22.489Z,98670.63
2022-11-05T19:56:51.952Z,98674.88
2022-11-05T19:59:19.107Z,98676.38
2022-11-05T20:01:46.180Z,98684.34
2022-11-05T20:04:13.467Z,98688.72
2022-11-05T20:06:40.969Z,98687.88
2022-11-05T20:09:27.394Z,98679.22
2022-11-05T20:11:56.765Z,98698.81
2022-11-05T20:14:25.148Z,98668.53
2022-11-05T20:16:52.364Z,98697.19
2022-11-05T20:19:21.399Z,98698.75
2022-11-05T20:21:48.766Z,98640.66
2022-11-05T20:24:23.612Z,98698.75
2022-11-05T20:26:52.626Z,98706.16
2022-11-05T20:29:19.624Z,98711.75
2022-11-05T20:31:46.713Z,98705.84
2022-11-05T20:34:13.585Z,98707.47
2022-11-05T20:36:41.571Z,98704.13
2022-11-05T20:39:08.529Z,98704.13
2022-11-05T20:41:35.400Z,98703.28
2022-11-05T20:44:02.766Z,98714.91
2022-11-05T20:46:29.797Z,98722.22
2022-11-05T20:48:56.936Z,98730.09
2022-11-05T20:51:25.779Z,98725.53
2022-11-05T20:53:57.444Z,98724.72
2022-11-05T20:56:27.915Z,98722.22
2022-11-05T20:58:58.176Z,98735.69
2022-11-05T21:01:29.659Z,98739.94
2022-11-05T21:03:57.238Z,98733.34
2022-11-05T21:06:24.957Z,98739.09
2022-11-05T21:08:53.316Z,98753.09
2022-11-05T21:11:22.172Z,98740.53
2022-11-05T21:13:49.884Z,98743.06
2022-11-05T21:16:18.898Z,98749.00
2022-11-05T21:18:46.852Z,98742.31
2022-11-05T21:21:19.531Z,98744.66
2022-11-05T21:23:46.829Z,98720.56
2022-11-05T21:26:17.035Z,98748.19
2022-11-05T21:28:44.173Z,98727.25
2022-11-05T21:31:11.412Z,98735.09
2022-11-05T21:33:38.567Z,98741.38
2022-11-05T21:36:10.127Z,98741.00
2022-11-05T21:38:37.536Z,98744.38
2022-11-05T21:41:05.388Z,98741.19
2022-11-05T21:43:32.590Z,98750.47
2022-11-05T21:46:04.246Z,98739.69
2022-11-05T21:48:31.915Z,98758.53
2022-11-05T21:51:17.362Z,98750.16
2022-11-05T21:54:02.968Z,98758.91
2022-11-05T21:56:48.998Z,98743.47
2022-11-05T21:59:37.778Z,98751.16
2022-11-05T22:02:05.812Z,98752.47
2022-11-05T22:04:37.127Z,98751.47
2022-11-05T22:07:05.221Z,98755.19
2022-11-05T22:09:32.495Z,98764.94
2022-11-05T22:12:00.781Z,98761.53
2022-11-05T22:14:28.518Z,98749.38
2022-11-05T22:16:55.795Z,98749.56
2022-11-05T22:19:23.571Z,98753.75
2022-11-05T22:21:50.906Z,98758.47
2022-11-05T22:24:18.889Z,98753.09
2022-11-05T22:26:46.245Z,98756.53
2022-11-05T22:29:13.648Z,98760.03
2022-11-05T22:31:40.803Z,98753.16
2022-11-05T22:34:08.141Z,98761.94
2022-11-05T22:36:35.486Z,98772.78
2022-11-05T22:39:03.758Z,98771.28
2022-11-05T22:41:31.306Z,98765.06
2022-11-05T22:43:58.739Z,98766.06
2022-11-05T22:46:27.361Z,98772.28
2022-11-05T22:48:56.450Z,98765.06
2022-11-05T22:51:26.499Z,98758.31
2022-11-05T22:53:55.175Z,98761.38
2022-11-05T22:56:25.596Z,98762.44
2022-11-05T22:58:53.098Z,98769.97
2022-11-05T23:01:22.160Z,98766.75
2022-11-05T23:03:50.932Z,98774.81
2022-11-05T23:06:41.435Z,98772.00
2022-11-05T23:09:48.316Z,98771.16
2022-11-05T23:12:23.652Z,98762.06
2022-11-05T23:14:51.163Z,98766.78
2022-11-05T23:17:37.101Z,98774.50
2022-11-05T23:20:24.530Z,98778.56
2022-11-05T23:23:10.512Z,98774.72
2022-11-05T23:25:37.664Z,98772.94
2022-11-05T23:28:10.100Z,98771.91
2022-11-05T23:31:02.565Z,98770.06
2022-11-05T23:33:36.476Z,98720.97
2022-11-05T23:36:22.394Z,98780.81
2022-11-05T23:38:49.444Z,98768.63
2022-11-05T23:41:34.843Z,98774.22
2022-11-05T23:44:20.452Z,98781.59
2022-11-05T23:47:05.937Z,98777.44
2022-11-05T23:49:32.956Z,98778.75
2022-11-05T23:52:00.051Z,98775.16
2022-11-05T23:54:26.988Z,98783.41
2022-11-05T23:56:53.953Z,98786.00
2022-11-05T23:59:21.097Z,98779.31
